Time;durP1;ratioP1;P1;durP2;ratioP2;P2;SDS_P1;SDS_P2;PMS_P1;PMS_P2;Temp;Humidity;BMP_temperature;BMP_pressure;BME280_temperature;BME280_humidity;BME280_pressure;Samples;Min_cycle;Max_cycle;Signal;HPM_P1;HPM_P2
2022/08/15 00:00:34;;;;;;;10.30;8.00;;;;;;;19.00;100.00;100227.85;107382;1247;70142;-66
2022/08/15 00:03:27;;;;;;;11.30;7.40;;;;;;;19.01;100.00;100204.52;107451;1247;73240;-63
2022/08/15 00:06:29;;;;;;;11.40;8.10;;;;;;;18.94;100.00;100193.09;107452;1247;62560;-62
2022/08/15 00:09:18;;;;;;;9.60;7.50;;;;;;;18.88;100.00;100186.81;107479;1247;59585;-62
2022/08/15 00:11:56;;;;;;;11.60;7.70;;;;;;;18.88;100.00;100180.03;107412;1247;73560;-66
2022/08/15 00:14:32;;;;;;;12.10;8.30;;;;;;;18.90;100.00;100171.75;107303;1247;61952;-64
2022/08/15 00:17:09;;;;;;;13.80;8.10;;;;;;;18.89;100.00;100162.10;107332;1247;68149;-64
2022/08/15 00:19:47;;;;;;;11.10;7.90;;;;;;;18.90;100.00;100162.52;107463;1247;63200;-63
2022/08/15 00:22:17;;;;;;;11.30;8.40;;;;;;;18.88;100.00;100159.95;107173;1248;63127;-63
2022/08/15 00:24:49;;;;;;;13.20;9.40;;;;;;;18.89;100.00;100151.91;107349;1247;61717;-65
2022/08/15 00:27:21;;;;;;;;;;;;;;;18.87;100.00;100147.73;107077;1250;64681;-65
2022/08/15 00:29:54;;;;;;;13.20;8.60;;;;;;;18.89;100.00;100140.46;107305;1247;72716;-65
2022/08/15 00:32:24;;;;;;;13.60;8.50;;;;;;;18.88;100.00;100135.44;107397;1248;69055;-64
2022/08/15 00:38:13;;;;;;;14.50;8.60;;;;;;;18.75;100.00;100145.00;107404;1247;62521;-64
2022/08/15 00:44:22;;;;;;;11.00;7.80;;;;;;;18.82;100.00;100146.50;107253;1247;73129;-65
2022/08/15 00:47:17;;;;;;;11.70;8.20;;;;;;;18.82;100.00;100152.16;107316;1247;73014;-64
2022/08/15 00:49:47;;;;;;;10.90;8.00;;;;;;;18.77;100.00;100152.20;107222;1250;59526;-65
2022/08/15 00:52:34;;;;;;;11.00;7.90;;;;;;;18.77;100.00;100155.50;107476;1247;74334;-64
2022/08/15 00:55:15;;;;;;;12.00;8.20;;;;;;;18.80;100.00;100158.27;107278;1248;63538;-64
2022/08/15 00:57:47;;;;;;;11.80;8.10;;;;;;;18.75;100.00;100158.59;107238;1250;59671;-64
2022/08/15 01:00:44;;;;;;;12.90;8.30;;;;;;;18.72;100.00;100151.71;107340;1250;74470;-66
2022/08/15 01:03:30;;;;;;;12.30;8.30;;;;;;;18.73;100.00;100156.03;107327;1249;62162;-65
2022/08/15 01:06:04;;;;;;;10.70;7.10;;;;;;;18.70;100.00;100151.06;107275;1250;69873;-65
2022/08/15 01:08:38;;;;;;;11.30;7.90;;;;;;;18.69;100.00;100154.79;107275;1250;62721;-66
2022/08/15 01:11:10;;;;;;;13.30;8.50;;;;;;;18.67;100.00;100161.59;107240;1250;62661;-65
2022/08/15 01:13:41;;;;;;;12.00;8.90;;;;;;;18.62;100.00;100154.87;107329;1249;60920;-64
2022/08/15 01:16:31;;;;;;;12.30;8.40;;;;;;;18.62;100.00;100159.10;107090;1250;75266;-65
2022/08/15 01:19:28;;;;;;;12.70;8.90;;;;;;;18.59;100.00;100161.56;107281;1250;61287;-65
2022/08/15 01:22:32;;;;;;;12.20;8.90;;;;;;;18.57;100.00;100165.26;107151;1249;59822;-65
2022/08/15 01:25:10;;;;;;;12.40;8.60;;;;;;;18.56;100.00;100170.02;107171;1250;62507;-63
2022/08/15 01:28:08;;;;;;;13.50;9.20;;;;;;;18.54;100.00;100171.58;107252;1249;59639;-68
2022/08/15 01:30:48;;;;;;;11.20;8.40;;;;;;;18.54;100.00;100170.69;107180;1250;60186;-64
2022/08/15 01:33:41;;;;;;;11.80;9.20;;;;;;;18.53;100.00;100163.98;107273;1249;75409;-62
2022/08/15 01:36:11;;;;;;;13.00;9.20;;;;;;;18.53;100.00;100166.05;107207;1250;61141;-66
2022/08/15 01:39:16;;;;;;;11.80;8.40;;;;;;;18.52;100.00;100156.52;107326;1249;70604;-64
2022/08/15 01:41:51;;;;;;;14.00;9.40;;;;;;;18.50;100.00;100155.08;107200;1249;74324;-64
2022/08/15 01:44:40;;;;;;;13.40;9.00;;;;;;;18.50;100.00;100151.28;107259;1250;59645;-64
2022/08/15 01:47:40;;;;;;;12.80;8.80;;;;;;;18.50;100.00;100148.80;107173;1250;61484;-66
2022/08/15 01:50:20;;;;;;;12.20;8.70;;;;;;;18.48;100.00;100152.11;107189;1250;64244;-65
2022/08/15 01:53:36;;;;;;;11.90;8.80;;;;;;;18.43;100.00;100153.27;107299;1250;60841;-66
2022/08/15 01:56:27;;;;;;;11.40;9.10;;;;;;;18.45;100.00;100154.41;107225;1250;59915;-64
2022/08/15 01:59:10;;;;;;;12.10;9.20;;;;;;;18.51;100.00;100159.00;107399;1247;74278;-65
2022/08/15 02:01:55;;;;;;;13.70;9.40;;;;;;;18.54;100.00;100156.80;107436;1249;59568;-65
2022/08/15 02:04:35;;;;;;;13.00;8.60;;;;;;;18.56;100.00;100153.35;107557;1247;59614;-65
2022/08/15 02:07:11;;;;;;;13.90;9.40;;;;;;;18.64;100.00;100155.52;107551;1247;74697;-65
2022/08/15 02:09:54;;;;;;;11.20;8.40;;;;;;;18.65;100.00;100164.34;107584;1247;72915;-64
2022/08/15 02:12:33;;;;;;;11.40;9.10;;;;;;;18.67;100.00;100164.14;107512;1247;60713;-64
2022/08/15 02:15:22;;;;;;;11.70;8.50;;;;;;;18.63;100.00;100162.33;107546;1247;74245;-64
2022/08/15 02:17:56;;;;;;;13.20;8.80;;;;;;;18.60;100.00;100153.69;107478;1247;63780;-65
2022/08/15 02:20:25;;;;;;;15.20;9.80;;;;;;;18.56;100.00;100161.20;107396;1244;60169;-65
2022/08/15 02:22:56;;;;;;;13.30;9.40;;;;;;;18.54;100.00;100157.02;107300;1247;74431;-67
2022/08/15 02:25:25;;;;;;;15.00;9.80;;;;;;;18.55;100.00;100158.05;107549;1247;61256;-65
2022/08/15 02:27:56;;;;;;;14.60;10.60;;;;;;;18.57;100.00;100156.48;107589;1247;59167;-66
2022/08/15 02:30:28;;;;;;;12.40;8.90;;;;;;;18.56;100.00;100158.55;107217;1248;73898;-63
2022/08/15 02:33:04;;;;;;;14.90;9.20;;;;;;;18.56;100.00;100157.66;107243;1247;62692;-62
2022/08/15 02:35:38;;;;;;;12.30;8.40;;;;;;;18.62;100.00;100152.91;107166;1248;60150;-63
2022/08/15 02:38:09;;;;;;;13.40;8.80;;;;;;;18.62;100.00;100147.36;107259;1247;64973;-65
2022/08/15 02:40:50;;;;;;;11.80;9.20;;;;;;;18.53;100.00;100142.11;107309;1247;72016;-66
2022/08/15 02:43:22;;;;;;;13.50;9.00;;;;;;;18.45;100.00;100135.65;107219;1247;70419;-66
2022/08/15 02:45:52;;;;;;;14.30;7.70;;;;;;;18.43;100.00;100137.81;107286;1247;73826;-64
2022/08/15 02:48:48;;;;;;;16.30;8.50;;;;;;;18.41;100.00;100140.29;107249;1247;59646;-64
2022/08/15 02:51:31;;;;;;;13.20;9.50;;;;;;;18.40;100.00;100145.45;107345;1247;59057;-65
2022/08/15 02:54:26;;;;;;;14.80;9.50;;;;;;;18.41;100.00;100146.28;107399;1247;62950;-66
2022/08/15 02:57:06;;;;;;;15.10;9.70;;;;;;;18.38;100.00;100141.77;107470;1247;72572;-65
2022/08/15 02:59:37;;;;;;;14.00;10.20;;;;;;;18.39;100.00;100140.39;107283;1250;60256;-66
2022/08/15 03:02:12;;;;;;;12.60;9.70;;;;;;;18.41;100.00;100144.40;107245;1248;63230;-66
2022/08/15 03:05:00;;;;;;;14.20;9.50;;;;;;;18.43;100.00;100142.23;107337;1247;59599;-65
2022/08/15 03:07:30;;;;;;;12.30;9.50;;;;;;;18.47;100.00;100129.91;107376;1247;60274;-66
2022/08/15 03:10:02;;;;;;;12.10;8.90;;;;;;;18.47;100.00;100124.95;107276;1247;64361;-70
2022/08/15 03:12:54;;;;;;;16.00;9.50;;;;;;;18.46;100.00;100121.39;107337;1249;60956;-65
2022/08/15 03:15:31;;;;;;;13.10;9.20;;;;;;;18.44;100.00;100114.27;107380;1247;69705;-67
2022/08/15 03:18:03;;;;;;;11.20;8.50;;;;;;;18.41;100.00;100113.56;107430;1247;74722;-69
2022/08/15 03:20:32;;;;;;;11.50;9.10;;;;;;;18.38;100.00;100119.31;107442;1247;63368;-66
2022/08/15 03:23:04;;;;;;;12.10;9.50;;;;;;;18.36;100.00;100117.59;107293;1250;59474;-72
2022/08/15 03:25:41;;;;;;;14.70;10.30;;;;;;;18.34;100.00;100117.38;107423;1247;62971;-69
2022/08/15 03:28:25;;;;;;;14.70;9.70;;;;;;;18.34;100.00;100123.52;107416;1247;71310;-66
2022/08/15 03:31:04;;;;;;;14.90;10.20;;;;;;;18.31;100.00;100127.16;107537;1247;59601;-65
2022/08/15 03:33:37;;;;;;;19.30;10.10;;;;;;;18.31;100.00;100129.15;107204;1248;74115;-66
2022/08/15 03:36:26;;;;;;;15.00;10.90;;;;;;;18.35;100.00;100130.38;107311;1250;62371;-64
2022/08/15 03:38:55;;;;;;;16.50;10.10;;;;;;;18.37;100.00;100127.36;107369;1250;59550;-66
2022/08/15 03:41:28;;;;;;;15.40;9.30;;;;;;;18.39;100.00;100136.48;107267;1250;64737;-65
2022/08/15 03:43:57;;;;;;;15.20;11.00;;;;;;;18.45;100.00;100146.68;107489;1248;60757;-65
2022/08/15 03:46:28;;;;;;;15.70;10.70;;;;;;;18.45;100.00;100152.66;107272;1248;70547;-64
2022/08/15 03:48:58;;;;;;;14.20;10.00;;;;;;;18.51;100.00;100152.53;107415;1247;73896;-66
2022/08/15 03:51:40;;;;;;;14.90;9.90;;;;;;;18.55;100.00;100154.42;107430;1247;59619;-65
2022/08/15 03:54:13;;;;;;;18.70;11.00;;;;;;;18.57;100.00;100154.02;107450;1247;59472;-66
2022/08/15 03:56:54;;;;;;;21.90;10.70;;;;;;;18.57;100.00;100160.65;107491;1247;63858;-65
2022/08/15 03:59:24;;;;;;;14.90;10.10;;;;;;;18.59;100.00;100165.70;107314;1248;69942;-68
2022/08/15 04:01:55;;;;;;;15.30;10.00;;;;;;;18.59;100.00;100162.03;107479;1248;70313;-68
2022/08/15 04:04:29;;;;;;;13.10;9.10;;;;;;;18.62;100.00;100168.10;107539;1247;72009;-68
2022/08/15 04:06:59;;;;;;;13.20;8.70;;;;;;;18.63;100.00;100170.11;107441;1247;61987;-67
2022/08/15 04:09:39;;;;;;;11.40;8.80;;;;;;;18.62;100.00;100169.25;107301;1247;59543;-64
2022/08/15 04:12:12;;;;;;;14.40;10.00;;;;;;;18.65;100.00;100172.32;107414;1247;74560;-69
2022/08/15 04:14:55;;;;;;;13.90;9.80;;;;;;;18.59;100.00;100174.75;107483;1247;71929;-68
2022/08/15 04:17:24;;;;;;;13.40;9.40;;;;;;;18.68;100.00;100174.02;107494;1247;70936;-67
2022/08/15 04:20:13;;;;;;;15.90;9.60;;;;;;;18.72;100.00;100170.56;107512;1247;74830;-66
2022/08/15 04:23:05;;;;;;;18.20;10.00;;;;;;;18.82;100.00;100168.54;107239;1248;63690;-66
2022/08/15 04:25:40;;;;;;;13.60;9.60;;;;;;;18.84;100.00;100170.17;107185;1248;62307;-68
2022/08/15 04:28:26;;;;;;;13.60;9.10;;;;;;;18.92;100.00;100171.84;107384;1247;72660;-66
2022/08/15 04:31:20;;;;;;;16.00;9.60;;;;;;;18.93;100.00;100165.66;107508;1247;61602;-70
2022/08/15 04:33:50;;;;;;;14.40;9.60;;;;;;;18.96;100.00;100160.55;107296;1250;60061;-70
2022/08/15 04:36:39;;;;;;;13.30;9.90;;;;;;;19.01;100.00;100150.25;107470;1247;62702;-68
2022/08/15 04:39:09;;;;;;;13.30;10.00;;;;;;;19.04;100.00;100138.14;107554;1247;59580;-69
2022/08/15 04:41:48;;;;;;;15.60;13.40;;;;;;;19.04;100.00;100127.00;107461;1247;58813;-67
2022/08/15 04:44:21;;;;;;;12.20;10.20;;;;;;;19.09;100.00;100112.69;107307;1248;73626;-68
2022/08/15 04:46:57;;;;;;;13.10;9.80;;;;;;;19.12;100.00;100107.54;107490;1247;71313;-68
2022/08/15 04:49:28;;;;;;;13.60;8.90;;;;;;;19.10;100.00;100105.51;107423;1247;60652;-68
2022/08/15 04:52:15;;;;;;;11.20;8.80;;;;;;;19.13;100.00;100105.22;107531;1247;74185;-68
2022/08/15 04:54:47;;;;;;;14.10;9.30;;;;;;;19.13;100.00;100098.46;107258;1247;62890;-68
2022/08/15 04:57:27;;;;;;;12.30;9.00;;;;;;;19.20;100.00;100095.70;107458;1247;58684;-68
2022/08/15 04:59:58;;;;;;;13.60;9.70;;;;;;;19.28;99.93;100096.67;107494;1247;63704;-67
2022/08/15 05:03:18;;;;;;;15.10;9.80;;;;;;;19.29;99.40;100098.98;107429;1247;72611;-68
2022/08/15 05:05:58;;;;;;;;;;;;;;;19.27;99.36;100094.67;107415;1247;60081;-67
2022/08/15 05:08:31;;;;;;;13.90;9.10;;;;;;;19.32;99.05;100089.48;107466;1247;72426;-66
2022/08/15 05:11:14;;;;;;;12.40;9.30;;;;;;;19.32;98.88;100099.52;107383;1249;59633;-68
2022/08/15 05:13:46;;;;;;;13.30;9.70;;;;;;;19.36;98.34;100109.88;107272;1250;58593;-68
2022/08/15 05:16:25;;;;;;;12.00;8.60;;;;;;;19.37;98.17;100115.59;107272;1248;63796;-66
2022/08/15 05:19:04;;;;;;;15.40;10.00;;;;;;;19.36;98.05;100113.70;107353;1247;71893;-67
2022/08/15 05:21:38;;;;;;;15.40;9.50;;;;;;;19.35;98.02;100115.73;107218;1248;59548;-70
2022/08/15 05:24:11;;;;;;;15.90;10.80;;;;;;;19.37;97.85;100115.27;107287;1247;63188;-69
2022/08/15 05:26:46;;;;;;;14.80;10.50;;;;;;;19.32;97.87;100119.71;107156;1248;59689;-67
2022/08/15 05:29:26;;;;;;;12.80;9.70;;;;;;;19.36;98.02;100118.15;107360;1247;59576;-67
2022/08/15 05:31:56;;;;;;;12.80;9.60;;;;;;;19.35;97.90;100117.48;107221;1248;74828;-68
2022/08/15 05:34:28;;;;;;;14.30;10.40;;;;;;;19.43;97.73;100106.74;107526;1247;71167;-69
2022/08/15 05:37:05;;;;;;;13.00;10.10;;;;;;;19.46;97.68;100098.94;107424;1247;59660;-67
2022/08/15 05:39:37;;;;;;;16.50;10.80;;;;;;;19.46;97.93;100093.83;107470;1250;64281;-68
2022/08/15 05:42:12;;;;;;;13.10;10.30;;;;;;;19.58;97.71;100092.75;107252;1248;62338;-68
2022/08/15 05:45:04;;;;;;;16.60;10.40;;;;;;;19.71;97.33;100093.29;107433;1247;59593;-68
2022/08/15 05:48:07;;;;;;;14.90;9.50;;;;;;;19.80;97.10;100094.42;107537;1250;64279;-69
2022/08/15 05:51:13;;;;;;;15.50;10.30;;;;;;;19.94;96.34;100096.05;107693;1247;72568;-69
2022/08/15 05:54:24;;;;;;;15.00;10.80;;;;;;;20.03;96.27;100096.64;107606;1249;59457;-69
2022/08/15 05:57:15;;;;;;;15.60;10.50;;;;;;;20.23;95.76;100094.25;107336;1247;72965;-67
2022/08/15 05:59:55;;;;;;;13.60;9.70;;;;;;;20.37;94.31;100091.17;107198;1248;59646;-70
2022/08/15 06:02:45;;;;;;;14.00;9.90;;;;;;;20.37;94.14;100088.16;107467;1247;59775;-70
2022/08/15 06:05:36;;;;;;;14.10;10.00;;;;;;;20.51;94.26;100092.23;107510;1248;74235;-67
2022/08/15 06:08:11;;;;;;;;;;;;;;;20.59;93.42;100095.98;107539;1250;71825;-67
2022/08/15 06:11:18;;;;;;;11.40;9.30;;;;;;;20.65;93.71;100091.70;107749;1247;70526;-70
2022/08/15 06:14:11;;;;;;;17.20;11.00;;;;;;;20.70;92.81;100092.10;107531;1248;63913;-67
2022/08/15 06:16:52;;;;;;;16.10;9.90;;;;;;;20.74;92.89;100094.98;107464;1247;59714;-68
2022/08/15 06:19:30;;;;;;;14.70;10.00;;;;;;;20.78;92.15;100103.28;107333;1247;60338;-67
2022/08/15 06:22:25;;;;;;;14.00;10.50;;;;;;;20.79;92.11;100107.38;107307;1247;65789;-67
2022/08/15 06:25:24;;;;;;;13.90;10.20;;;;;;;20.78;91.69;100106.67;107547;1247;72701;-67
2022/08/15 06:28:39;;;;;;;14.70;11.10;;;;;;;20.89;92.33;100104.58;107323;1247;70404;-67
2022/08/15 06:31:39;;;;;;;13.60;10.30;;;;;;;21.08;91.42;100100.40;107403;1247;75298;-68
2022/08/15 06:34:31;;;;;;;17.90;10.60;;;;;;;21.13;90.93;100100.60;107203;1250;58490;-72
2022/08/15 06:37:42;;;;;;;17.00;11.10;;;;;;;21.23;90.89;100097.84;107561;1247;57919;-70
2022/08/15 06:40:53;;;;;;;13.30;10.10;;;;;;;21.37;89.89;100108.58;107502;1247;73930;-68
2022/08/15 06:43:24;;;;;;;12.00;9.90;;;;;;;21.38;89.28;100106.58;107451;1247;62254;-68
2022/08/15 06:46:34;;;;;;;15.30;10.40;;;;;;;21.38;88.88;100109.68;107346;1250;70532;-69
2022/08/15 06:49:22;;;;;;;14.60;11.00;;;;;;;21.41;88.60;100106.36;107434;1247;74235;-68
2022/08/15 06:51:52;;;;;;;13.10;9.30;;;;;;;21.46;89.03;100102.50;107247;1247;62950;-68
2022/08/15 06:54:27;;;;;;;15.50;10.10;;;;;;;21.55;88.50;100105.33;107429;1247;60984;-73
2022/08/15 06:57:47;;;;;;;17.90;11.80;;;;;;;21.60;88.38;100101.92;107501;1247;75487;-69
2022/08/15 07:00:52;;;;;;;16.40;10.10;;;;;;;21.62;88.37;100103.92;107502;1247;71839;-70
2022/08/15 07:03:43;;;;;;;17.40;10.90;;;;;;;21.82;87.79;100113.39;107582;1246;70203;-70
2022/08/15 07:06:23;;;;;;;15.10;10.90;;;;;;;21.93;87.35;100116.83;107513;1246;72813;-69
2022/08/15 07:09:01;;;;;;;14.40;9.90;;;;;;;22.01;86.72;100115.67;107308;1250;60429;-69
2022/08/15 07:12:13;;;;;;;14.90;10.40;;;;;;;22.11;86.05;100118.29;107711;1247;59614;-67
2022/08/15 07:15:21;;;;;;;12.80;10.40;;;;;;;22.13;85.83;100116.69;107415;1248;73655;-69
2022/08/15 07:17:58;;;;;;;13.90;10.10;;;;;;;22.21;85.09;100116.79;107373;1247;62168;-69
2022/08/15 07:20:31;;;;;;;18.80;11.30;;;;;;;22.21;84.71;100110.11;107488;1247;59040;-70
2022/08/15 07:23:28;;;;;;;14.00;9.50;;;;;;;22.33;85.18;100111.97;107544;1247;73918;-70
2022/08/15 07:26:08;;;;;;;14.00;10.90;;;;;;;22.48;84.35;100111.21;107345;1250;58918;-70
2022/08/15 07:28:49;;;;;;;14.20;10.00;;;;;;;22.54;84.26;100111.73;107132;1247;61163;-70
2022/08/15 07:31:28;;;;;;;13.60;11.00;;;;;;;22.65;83.98;100112.21;107358;1247;74858;-69
2022/08/15 07:34:23;;;;;;;16.30;11.50;;;;;;;22.65;83.51;100107.39;107430;1247;72726;-69
2022/08/15 07:37:04;;;;;;;17.00;11.00;;;;;;;22.78;82.89;100112.75;107461;1250;60568;-70
2022/08/15 07:39:43;;;;;;;15.20;11.10;;;;;;;22.84;82.85;100106.66;107616;1249;63296;-70
2022/08/15 07:42:21;;;;;;;16.80;10.80;;;;;;;22.97;82.37;100100.27;107267;1248;62140;-70
2022/08/15 07:45:37;;;;;;;14.00;10.80;;;;;;;23.15;81.92;100095.67;107476;1247;58973;-72
2022/08/15 07:48:32;;;;;;;18.00;12.10;;;;;;;23.06;81.39;100096.05;107298;1247;74833;-70
2022/08/15 07:51:19;;;;;;;16.30;11.80;;;;;;;23.26;80.50;100091.92;107508;1247;71962;-70
2022/08/15 07:54:03;;;;;;;21.80;12.10;;;;;;;23.27;80.31;100088.52;107532;1247;71480;-70
2022/08/15 07:56:58;;;;;;;18.20;11.50;;;;;;;23.33;79.23;100083.51;107581;1247;62898;-70
2022/08/15 07:59:33;;;;;;;14.60;11.70;;;;;;;23.33;79.60;100075.42;107309;1247;62037;-71
2022/08/15 08:02:51;;;;;;;;;;;;;;;23.40;79.71;100077.82;107476;1249;59666;-71
2022/08/15 08:05:31;;;;;;;18.20;11.90;;;;;;;23.46;78.53;100082.56;107347;1247;73813;-70
2022/08/15 08:08:19;;;;;;;17.10;11.20;;;;;;;23.31;78.14;100069.85;107508;1250;70483;-70
2022/08/15 08:11:40;;;;;;;15.50;11.20;;;;;;;23.44;79.09;100073.38;107548;1247;70389;-69
2022/08/15 08:14:31;;;;;;;16.90;11.60;;;;;;;23.57;78.78;100076.23;107285;1247;74580;-70
2022/08/15 08:17:18;;;;;;;17.40;11.40;;;;;;;23.62;78.61;100073.86;107519;1247;59565;-69
2022/08/15 08:20:23;;;;;;;13.60;10.50;;;;;;;23.69;77.93;100072.08;107475;1247;58279;-69
2022/08/15 08:23:12;;;;;;;14.10;11.80;;;;;;;23.65;78.37;100071.06;107312;1248;74499;-69
2022/08/15 08:26:02;;;;;;;14.50;10.90;;;;;;;23.70;78.38;100067.63;107644;1247;61147;-69
2022/08/15 08:29:14;;;;;;;16.00;11.90;;;;;;;23.74;78.22;100060.65;107609;1247;70512;-67
2022/08/15 08:31:52;;;;;;;16.00;11.20;;;;;;;23.78;77.94;100051.91;107364;1249;63800;-68
2022/08/15 08:34:50;;;;;;;14.90;11.30;;;;;;;23.84;77.96;100051.22;107515;1247;59512;-69
2022/08/15 08:37:41;;;;;;;14.20;11.10;;;;;;;23.93;77.48;100046.23;107467;1247;60693;-71
2022/08/15 08:44:01;;;;;;;14.30;11.30;;;;;;;24.07;77.64;100046.94;107555;1247;63541;-69
2022/08/15 08:46:59;;;;;;;14.20;11.80;;;;;;;24.19;77.75;100048.95;107478;1250;59923;-69
2022/08/15 08:49:38;;;;;;;16.60;11.70;;;;;;;24.39;76.97;100042.66;107678;1247;73529;-69
2022/08/15 08:52:45;;;;;;;15.60;11.70;;;;;;;24.58;75.66;100045.62;107417;1247;61941;-70
2022/08/15 08:55:50;;;;;;;15.80;10.80;;;;;;;24.64;75.22;100037.88;107372;1246;57946;-71
2022/08/15 08:58:40;;;;;;;15.50;11.10;;;;;;;24.77;74.80;100033.10;107519;1247;63830;-71
2022/08/15 09:01:19;;;;;;;15.10;11.50;;;;;;;24.86;74.20;100035.70;107259;1250;61891;-69
2022/08/15 09:04:10;;;;;;;20.60;12.00;;;;;;;24.87;74.48;100037.21;107537;1247;70869;-69
2022/08/15 09:06:43;;;;;;;15.10;10.90;;;;;;;24.96;74.08;100034.02;107670;1249;63731;-71
2022/08/15 09:09:35;;;;;;;17.90;12.10;;;;;;;25.08;73.35;100045.52;107256;1248;62206;-72
2022/08/15 09:15:22;;;;;;;16.40;12.00;;;;;;;25.07;72.35;100039.51;107605;1247;64984;-72
2022/08/15 09:18:30;;;;;;;14.70;12.20;;;;;;;25.04;72.27;100038.29;107498;1250;61589;-71
2022/08/15 09:21:00;;;;;;;13.10;10.90;;;;;;;25.16;71.46;100041.27;107486;1247;70661;-72
2022/08/15 09:23:39;;;;;;;13.00;11.60;;;;;;;25.10;71.39;100043.87;107426;1248;63489;-70
2022/08/15 09:26:52;;;;;;;16.20;11.80;;;;;;;25.04;71.00;100037.91;107613;1247;59584;-69
2022/08/15 09:29:32;;;;;;;15.00;11.70;;;;;;;25.03;71.46;100039.20;107118;1249;61722;-69
2022/08/15 09:32:28;;;;;;;16.10;12.20;;;;;;;25.06;71.71;100036.71;107730;1247;64453;-72
2022/08/15 09:35:37;;;;;;;14.00;11.60;;;;;;;25.27;71.65;100034.01;107689;1246;70388;-67
2022/08/15 09:38:42;;;;;;;17.10;12.50;;;;;;;25.48;70.80;100038.45;107340;1250;69959;-70
2022/08/15 09:41:51;;;;;;;16.00;11.30;;;;;;;25.50;70.26;100040.86;107610;1247;63787;-70
2022/08/15 09:44:39;;;;;;;;;;;;;;;25.67;69.19;100036.52;107313;1250;59495;-70
2022/08/15 09:47:29;;;;;;;15.30;12.50;;;;;;;25.78;68.83;100037.85;107566;1246;61167;-70
2022/08/15 09:51:02;;;;;;;18.50;14.80;;;;;;;25.82;68.65;100045.63;107537;1246;74918;-71
2022/08/15 09:53:40;;;;;;;16.40;12.90;;;;;;;25.84;68.65;100043.86;107283;1247;72586;-69
2022/08/15 09:56:25;;;;;;;15.20;12.20;;;;;;;25.95;67.89;100040.55;107734;1247;60376;-72
2022/08/15 09:59:19;;;;;;;14.70;10.40;;;;;;;25.96;68.24;100042.63;107375;1247;63138;-70
2022/08/15 10:02:20;;;;;;;15.20;12.00;;;;;;;26.07;67.46;100036.86;107512;1247;62850;-69
2022/08/15 10:05:14;;;;;;;18.80;13.10;;;;;;;26.01;67.61;100037.02;107529;1247;59043;-70
2022/08/15 10:07:46;;;;;;;14.30;12.20;;;;;;;26.30;66.95;100033.30;107560;1247;74464;-69
2022/08/15 10:10:23;;;;;;;16.00;12.70;;;;;;;26.33;66.34;100035.24;107600;1247;62045;-72
2022/08/15 10:13:50;;;;;;;14.70;12.10;;;;;;;26.34;66.09;100039.95;107587;1247;59264;-68
2022/08/15 10:16:40;;;;;;;14.40;11.40;;;;;;;26.32;66.18;100041.44;107401;1247;64090;-69
2022/08/15 10:19:38;;;;;;;14.40;10.90;;;;;;;26.33;65.19;100041.38;107465;1247;61254;-69
2022/08/15 10:22:26;;;;;;;13.90;11.70;;;;;;;26.42;64.55;100043.10;107509;1247;61404;-68
2022/08/15 10:25:28;;;;;;;12.70;11.00;;;;;;;26.54;64.02;100036.98;107509;1247;63469;-67
2022/08/15 10:28:24;;;;;;;12.40;11.10;;;;;;;26.74;63.35;100040.86;107351;1247;71951;-69
2022/08/15 10:31:16;;;;;;;16.50;11.80;;;;;;;26.83;62.89;100038.88;107338;1247;70989;-71
2022/08/15 10:33:52;;;;;;;13.50;11.00;;;;;;;26.92;62.96;100040.73;107564;1247;63662;-70
2022/08/15 10:36:35;;;;;;;16.80;12.20;;;;;;;26.95;62.62;100044.87;107337;1247;59522;-69
2022/08/15 10:39:49;;;;;;;15.20;11.60;;;;;;;26.88;61.55;100049.01;107379;1249;61304;-69
2022/08/15 10:42:49;;;;;;;14.70;11.00;;;;;;;27.11;60.73;100043.43;107145;1247;75165;-71
2022/08/15 10:46:29;;;;;;;14.50;11.60;;;;;;;27.12;61.14;100040.06;107179;1247;61360;-69
2022/08/15 10:49:16;;;;;;;14.40;11.20;;;;;;;27.32;60.67;100047.36;107339;1247;59356;-68
2022/08/15 10:52:18;;;;;;;16.80;11.60;;;;;;;27.39;59.84;100048.47;107294;1247;62473;-69
2022/08/15 10:55:32;;;;;;;17.60;11.80;;;;;;;27.20;60.03;100055.61;107464;1247;60803;-70
2022/08/15 10:58:32;;;;;;;16.50;11.10;;;;;;;27.04;60.74;100056.02;107634;1247;59606;-69
2022/08/15 11:01:12;;;;;;;17.20;12.00;;;;;;;26.99;61.37;100060.69;107465;1247;63016;-69
2022/08/15 11:03:55;;;;;;;14.50;11.20;;;;;;;27.13;60.68;100055.09;107436;1247;72906;-69
2022/08/15 11:06:46;;;;;;;13.60;10.70;;;;;;;27.36;60.07;100053.83;107222;1248;71009;-70
2022/08/15 11:09:24;;;;;;;17.00;11.80;;;;;;;27.49;59.10;100050.54;107299;1250;74462;-68
2022/08/15 11:12:04;;;;;;;14.60;11.10;;;;;;;27.56;59.24;100053.37;107194;1247;61872;-69
2022/08/15 11:14:43;;;;;;;14.00;11.00;;;;;;;27.72;59.06;100047.37;107253;1247;61532;-71
2022/08/15 11:17:22;;;;;;;18.20;10.80;;;;;;;27.71;58.51;100050.17;107330;1249;75709;-71
2022/08/15 11:19:57;;;;;;;12.10;10.30;;;;;;;27.83;57.84;100044.69;107240;1247;72036;-68
2022/08/15 11:22:47;;;;;;;14.00;10.90;;;;;;;27.81;57.98;100043.27;107214;1248;59904;-70
2022/08/15 11:25:31;;;;;;;13.10;10.60;;;;;;;27.84;57.89;100042.65;107271;1247;73510;-68
2022/08/15 11:28:06;;;;;;;13.20;11.40;;;;;;;27.83;57.21;100045.23;107340;1250;59042;-71
2022/08/15 11:31:11;;;;;;;18.50;11.70;;;;;;;27.84;57.21;100044.06;106088;1247;59632;-71
2022/08/15 11:33:46;;;;;;;14.60;11.30;;;;;;;27.79;57.00;100041.77;107430;1250;63742;-69
2022/08/15 11:36:25;;;;;;;14.50;11.30;;;;;;;27.76;57.55;100038.70;107241;1249;72603;-69
2022/08/15 11:39:12;;;;;;;14.40;10.60;;;;;;;27.74;57.57;100037.86;107260;1247;70003;-70
2022/08/15 11:41:56;;;;;;;15.00;11.10;;;;;;;27.84;56.78;100039.23;107474;1247;73654;-71
2022/08/15 11:45:01;;;;;;;11.10;9.90;;;;;;;27.64;57.22;100038.35;107415;1247;61462;-71
2022/08/15 11:47:34;;;;;;;12.10;10.90;;;;;;;27.61;56.70;100040.11;107475;1248;61595;-72
2022/08/15 11:50:32;;;;;;;18.30;11.40;;;;;;;27.56;57.08;100039.36;107295;1247;75491;-70
2022/08/15 11:53:06;;;;;;;15.90;11.60;;;;;;;27.39;57.57;100036.39;107638;1247;72642;-71
2022/08/15 11:55:38;;;;;;;11.60;10.40;;;;;;;27.34;57.67;100036.61;107338;1247;71358;-71
2022/08/15 11:58:15;;;;;;;13.40;10.60;;;;;;;27.28;57.74;100033.17;107472;1247;62770;-68
2022/08/15 12:00:57;;;;;;;12.00;10.70;;;;;;;27.18;57.98;100033.50;107567;1247;60431;-69
2022/08/15 12:04:06;;;;;;;13.80;11.00;;;;;;;27.13;57.90;100029.42;107397;1248;59938;-69
2022/08/15 12:06:55;;;;;;;13.60;10.50;;;;;;;27.07;58.30;100028.70;107736;1247;63373;-69
2022/08/15 12:09:27;;;;;;;12.40;10.10;;;;;;;27.09;58.19;100031.07;107591;1247;72609;-69
2022/08/15 12:12:37;;;;;;;13.60;10.70;;;;;;;27.19;57.84;100033.91;107561;1247;59512;-69
2022/08/15 12:15:44;;;;;;;13.60;10.70;;;;;;;27.09;57.67;100032.98;107531;1247;74973;-70
2022/08/15 12:18:35;;;;;;;15.10;10.80;;;;;;;27.10;58.11;100025.83;107301;1250;57907;-67
2022/08/15 12:21:20;;;;;;;13.80;10.90;;;;;;;27.22;57.85;100027.86;107394;1247;60360;-68
2022/08/15 12:23:57;;;;;;;14.00;10.40;;;;;;;27.22;57.48;100029.18;107471;1247;74083;-71
2022/08/15 12:26:29;;;;;;;12.20;10.90;;;;;;;27.27;57.83;100029.24;107380;1247;72261;-70
2022/08/15 12:29:19;;;;;;;13.20;10.20;;;;;;;27.37;57.34;100028.43;107395;1248;72002;-69
2022/08/15 12:31:49;;;;;;;15.90;10.60;;;;;;;27.44;57.05;100017.18;107504;1247;63635;-70
2022/08/15 12:34:26;;;;;;;12.00;10.70;;;;;;;27.55;57.06;100014.07;107501;1248;60819;-70
2022/08/15 12:37:08;;;;;;;13.80;10.60;;;;;;;27.69;56.22;100013.40;107776;1247;59682;-70